Time;durP1;ratioP1;P1;durP2;ratioP2;P2;SDS_P1;SDS_P2;PMS_P1;PMS_P2;Temp;Humidity;BMP_temperature;BMP_pressure;BME280_temperature;BME280_humidity;BME280_pressure;Samples;Min_cycle;Max_cycle;Signal;HPM_P1;HPM_P2
2023/03/14 00:00:27;;;;;;;;;;;22.90;73.60;;;;;;1752767;81;20187;-81
2023/03/14 00:02:58;;;;;;;;;;;22.90;73.60;;;;;;1753307;82;20462;-80
2023/03/14 00:05:28;;;;;;;;;;;22.90;73.60;;;;;;1753484;82;20195;-79
2023/03/14 00:07:58;;;;;;;;;;;23.00;73.70;;;;;;1746275;81;20267;-79
2023/03/14 00:10:28;;;;;;;;;;;22.90;73.90;;;;;;1741763;82;20240;-79
2023/03/14 00:13:00;;;;;;;;;;;22.90;73.80;;;;;;1769741;81;20307;-78
2023/03/14 00:15:30;;;;;;;;;;;23.00;73.60;;;;;;1734777;83;20171;-78
2023/03/14 00:18:00;;;;;;;;;;;23.00;74.20;;;;;;1771376;81;20253;-78
2023/03/14 00:20:30;;;;;;;;;;;23.00;73.40;;;;;;1764602;81;20329;-78
2023/03/14 00:22:59;;;;;;;;;;;23.00;73.50;;;;;;1774214;81;20560;-79
2023/03/14 00:25:29;;;;;;;;;;;23.10;73.40;;;;;;1773879;81;20186;-79
2023/03/14 00:28:00;;;;;;;;;;;23.10;72.60;;;;;;1772652;81;20190;-79
2023/03/14 00:30:30;;;;;;;;;;;23.20;72.60;;;;;;1773425;81;20242;-79
2023/03/14 00:33:00;;;;;;;;;;;23.30;72.00;;;;;;1773505;81;20179;-79
2023/03/14 00:35:29;;;;;;;;;;;23.30;72.10;;;;;;1770405;81;20333;-79
2023/03/14 00:38:03;;;;;;;;;;;23.40;72.40;;;;;;1766559;81;20609;-79
2023/03/14 00:40:36;;;;;;;;;;;23.40;72.70;;;;;;1771504;81;20183;-78
2023/03/14 00:43:06;;;;;;;;;;;23.40;73.50;;;;;;1771197;81;20240;-78
2023/03/14 00:45:36;;;;;;;;;;;23.50;72.50;;;;;;1767787;81;20261;-79
2023/03/14 00:48:05;;;;;;;;;;;23.50;72.90;;;;;;1763819;81;20214;-80
2023/03/14 00:50:36;;;;;;;;;;;23.60;71.50;;;;;;1777252;81;20162;-79
2023/03/14 00:53:06;;;;;;;;;;;23.70;72.10;;;;;;1773337;81;20207;-79
2023/03/14 00:55:39;;;;;;;;;;;23.70;72.40;;;;;;1774572;81;20288;-80
2023/03/14 00:58:09;;;;;;;;;;;23.80;71.80;;;;;;1773146;81;20210;-81
2023/03/14 01:00:39;;;;;;;;;;;23.80;71.60;;;;;;1772990;81;21145;-69
2023/03/14 01:03:10;;;;;;;;;;;23.90;71.30;;;;;;1759730;81;20298;-69
2023/03/14 01:05:40;;;;;;;;;;;23.90;71.20;;;;;;1729916;83;20760;-69
2023/03/14 01:08:11;;;;;;;;;;;23.90;71.30;;;;;;1767946;80;20303;-70
2023/03/14 01:10:41;;;;;;;;;;;23.90;71.40;;;;;;1778227;80;20273;-69
2023/03/14 01:13:12;;;;;;;;;;;24.00;71.30;;;;;;1783554;80;20261;-70
2023/03/14 01:15:43;;;;;;;;;;;24.00;71.40;;;;;;1779119;80;20178;-70
2023/03/14 01:18:12;;;;;;;;;;;24.00;72.10;;;;;;1769520;80;20231;-70
2023/03/14 01:20:43;;;;;;;;;;;24.00;71.10;;;;;;1778998;80;20260;-71
2023/03/14 01:23:14;;;;;;;;;;;24.00;71.00;;;;;;1753625;82;20202;-71
2023/03/14 01:25:44;;;;;;;;;;;24.00;71.00;;;;;;1744895;82;20197;-70
2023/03/14 01:28:14;;;;;;;;;;;24.00;71.00;;;;;;1742010;82;20222;-70
2023/03/14 01:30:45;;;;;;;;;;;24.00;72.10;;;;;;1808749;79;20227;-70
2023/03/14 01:33:17;;;;;;;;;;;24.00;71.40;;;;;;1815796;78;20441;-71
2023/03/14 01:41:42;;;;;;;;;;;24.00;71.80;;;;;;1812904;78;20227;-74
2023/03/14 01:44:18;;;;;;;;;;;24.10;71.90;;;;;;1814003;79;20216;-74
2023/03/14 01:46:46;;;;;;;;;;;24.10;71.70;;;;;;1815020;79;20502;-74
2023/03/14 01:49:23;;;;;;;;;;;24.10;71.80;;;;;;1816547;79;20481;-72
2023/03/14 01:51:57;;;;;;;;;;;24.10;71.70;;;;;;1816734;78;20170;-72
2023/03/14 01:54:34;;;;;;;;;;;24.10;71.60;;;;;;1774394;80;20575;-71
2023/03/14 01:57:09;;;;;;;;;;;24.20;71.50;;;;;;1786149;79;20577;-71
2023/03/14 02:05:56;;;;;;;;;;;24.40;71.50;;;;;;1748782;82;20167;-72
2023/03/14 02:08:27;;;;;;;;;;;24.50;71.10;;;;;;1809651;77;20186;-72
2023/03/14 02:10:58;;;;;;;;;;;24.60;70.90;;;;;;1769806;80;20199;-72
2023/03/14 02:13:28;;;;;;;;;;;24.60;70.60;;;;;;1774572;80;20253;-71
2023/03/14 02:15:58;;;;;;;;;;;24.70;70.30;;;;;;1734967;81;20149;-72
2023/03/14 02:18:28;;;;;;;;;;;24.80;70.30;;;;;;1771359;79;20191;-71
2023/03/14 02:21:08;;;;;;;;;;;24.80;70.00;;;;;;1747071;80;20601;-71
2023/03/14 02:23:51;;;;;;;;;;;24.90;70.00;;;;;;1743254;81;20203;-73
2023/03/14 02:27:08;;;;;;;;;;;24.90;69.80;;;;;;1733438;81;20214;-72
2023/03/14 02:29:40;;;;;;;;;;;25.00;69.90;;;;;;1748782;80;20180;-72
2023/03/14 02:32:09;;;;;;;;;;;25.10;70.30;;;;;;1750873;80;20207;-70
2023/03/14 02:34:40;;;;;;;;;;;25.10;68.30;;;;;;1748969;80;20633;-73
2023/03/14 02:37:11;;;;;;;;;;;25.20;68.50;;;;;;1749026;80;20210;-73
2023/03/14 02:39:42;;;;;;;;;;;25.30;68.30;;;;;;1748161;80;20226;-73
2023/03/14 02:42:13;;;;;;;;;;;25.30;67.90;;;;;;1750801;80;20536;-73
2023/03/14 02:44:54;;;;;;;;;;;25.30;67.90;;;;;;1737761;80;20294;-73
2023/03/14 02:47:25;;;;;;;;;;;25.40;67.90;;;;;;1749349;80;20206;-73
2023/03/14 02:49:56;;;;;;;;;;;25.40;68.00;;;;;;1748126;80;20199;-72
2023/03/14 02:52:26;;;;;;;;;;;25.50;68.00;;;;;;1743666;81;20270;-73
2023/03/14 02:54:56;;;;;;;;;;;25.70;67.60;;;;;;1750923;81;20248;-73
2023/03/14 02:57:26;;;;;;;;;;;25.80;67.60;;;;;;1741231;81;20309;-73
2023/03/14 02:59:57;;;;;;;;;;;25.90;67.00;;;;;;1747603;81;20246;-72
2023/03/14 03:02:30;;;;;;;;;;;25.90;66.60;;;;;;1747918;81;20228;-72
2023/03/14 03:05:18;;;;;;;;;;;26.00;66.20;;;;;;1748984;80;20234;-72
2023/03/14 03:07:47;;;;;;;;;;;26.10;66.20;;;;;;1748098;80;20226;-72
2023/03/14 03:10:35;;;;;;;;;;;26.20;65.90;;;;;;1728958;81;20296;-72
2023/03/14 03:13:08;;;;;;;;;;;26.30;66.50;;;;;;1719290;81;20223;-72
2023/03/14 03:15:40;;;;;;;;;;;26.30;65.50;;;;;;1719700;81;20337;-70
2023/03/14 03:18:12;;;;;;;;;;;26.40;65.00;;;;;;1768857;79;20220;-71
2023/03/14 03:20:45;;;;;;;;;;;26.50;64.90;;;;;;1772376;79;20215;-72
2023/03/14 03:23:25;;;;;;;;;;;26.40;64.50;;;;;;1771052;79;20150;-72
2023/03/14 03:25:55;;;;;;;;;;;26.40;64.80;;;;;;1779294;79;20268;-72
2023/03/14 03:28:25;;;;;;;;;;;26.50;64.60;;;;;;1774999;79;20308;-73
2023/03/14 03:30:55;;;;;;;;;;;26.60;64.70;;;;;;1778490;79;20284;-73
2023/03/14 03:33:25;;;;;;;;;;;26.70;64.10;;;;;;1776862;79;20268;-73
2023/03/14 03:35:55;;;;;;;;;;;26.80;63.90;;;;;;1779712;79;20462;-72
2023/03/14 03:38:25;;;;;;;;;;;26.80;63.70;;;;;;1779607;79;20671;-72
2023/03/14 03:40:55;;;;;;;;;;;26.90;64.30;;;;;;1779759;79;20244;-72
2023/03/14 03:43:25;;;;;;;;;;;27.00;64.30;;;;;;1780585;79;20196;-72
2023/03/14 03:45:55;;;;;;;;;;;27.10;64.40;;;;;;1776571;79;20228;-72
2023/03/14 03:48:25;;;;;;;;;;;27.10;63.90;;;;;;1777853;79;20255;-72
2023/03/14 03:50:55;;;;;;;;;;;27.20;63.80;;;;;;1782312;79;20260;-73
2023/03/14 03:53:25;;;;;;;;;;;27.30;63.90;;;;;;1774537;79;20226;-73
2023/03/14 03:55:56;;;;;;;;;;;27.30;63.00;;;;;;1748070;80;20441;-74
2023/03/14 03:58:30;;;;;;;;;;;27.40;62.80;;;;;;1740618;81;20179;-72
2023/03/14 04:01:00;;;;;;;;;;;27.50;63.00;;;;;;1743199;81;20312;-72
2023/03/14 04:03:30;;;;;;;;;;;27.50;62.60;;;;;;1746395;81;20226;-72
2023/03/14 04:06:01;;;;;;;;;;;27.60;62.10;;;;;;1745804;81;20180;-71
2023/03/14 04:08:31;;;;;;;;;;;27.70;62.00;;;;;;1740111;81;20297;-72
2023/03/14 04:11:02;;;;;;;;;;;27.70;61.20;;;;;;1746495;80;20279;-72
2023/03/14 04:13:32;;;;;;;;;;;27.80;61.50;;;;;;1752960;81;20274;-72
2023/03/14 04:16:02;;;;;;;;;;;27.80;61.00;;;;;;1745875;81;20170;-73
2023/03/14 04:18:32;;;;;;;;;;;27.80;61.40;;;;;;1742251;81;20406;-71
2023/03/14 04:21:02;;;;;;;;;;;27.80;61.60;;;;;;1755353;80;20303;-73
2023/03/14 04:23:32;;;;;;;;;;;27.90;62.30;;;;;;1753886;81;20558;-72
2023/03/14 04:26:03;;;;;;;;;;;;;;;;;;1753410;81;20227;-73
2023/03/14 04:28:33;;;;;;;;;;;28.10;61.00;;;;;;1751571;81;20586;-73
2023/03/14 04:31:13;;;;;;;;;;;28.10;60.90;;;;;;1749267;80;20216;-73
2023/03/14 04:33:43;;;;;;;;;;;28.20;60.70;;;;;;1753000;81;20326;-72
2023/03/14 04:36:15;;;;;;;;;;;28.30;60.30;;;;;;1748585;81;20296;-72
2023/03/14 04:38:48;;;;;;;;;;;28.30;61.20;;;;;;1737320;81;20237;-73
2023/03/14 04:41:18;;;;;;;;;;;28.30;60.40;;;;;;1755597;81;20792;-73
2023/03/14 04:43:49;;;;;;;;;;;28.30;60.10;;;;;;1748137;81;20198;-72
2023/03/14 04:46:20;;;;;;;;;;;28.30;60.40;;;;;;1743119;81;20209;-73
2023/03/14 04:48:50;;;;;;;;;;;28.40;60.20;;;;;;1751836;81;20185;-73
2023/03/14 04:51:23;;;;;;;;;;;28.40;60.10;;;;;;1757758;80;20246;-71
2023/03/14 04:53:51;;;;;;;;;;;;;;;;;;1755375;81;20300;-71
2023/03/14 04:56:21;;;;;;;;;;;28.40;59.60;;;;;;1758069;80;20554;-72
2023/03/14 04:58:55;;;;;;;;;;;28.50;60.00;;;;;;1756514;80;20182;-72
2023/03/14 05:01:25;;;;;;;;;;;28.60;59.80;;;;;;1757370;80;20256;-74
2023/03/14 05:03:55;;;;;;;;;;;28.60;60.20;;;;;;1757226;81;20223;-72
2023/03/14 05:06:25;;;;;;;;;;;28.70;59.70;;;;;;1757741;81;20190;-72
2023/03/14 05:08:55;;;;;;;;;;;28.80;59.50;;;;;;1757135;80;20513;-71
2023/03/14 05:11:25;;;;;;;;;;;29.00;62.00;;;;;;1774687;80;20282;-71
2023/03/14 05:13:58;;;;;;;;;;;28.90;60.00;;;;;;1740142;80;20665;-72
2023/03/14 05:16:35;;;;;;;;;;;29.00;59.40;;;;;;1751196;81;20298;-72
2023/03/14 05:19:05;;;;;;;;;;;29.10;59.10;;;;;;1747107;82;20318;-72
2023/03/14 05:21:34;;;;;;;;;;;29.20;59.20;;;;;;1776967;79;20492;-71
2023/03/14 05:24:04;;;;;;;;;;;29.20;58.80;;;;;;1779516;79;20581;-71
2023/03/14 05:26:34;;;;;;;;;;;29.30;59.20;;;;;;1777317;80;20186;-72
2023/03/14 05:29:04;;;;;;;;;;;29.40;58.60;;;;;;1741794;81;20217;-73
2023/03/14 05:31:34;;;;;;;;;;;29.40;58.40;;;;;;1747804;81;20217;-71
2023/03/14 05:34:04;;;;;;;;;;;29.50;58.30;;;;;;1741782;81;20273;-73
2023/03/14 05:36:34;;;;;;;;;;;29.50;58.00;;;;;;1774922;79;20243;-70
2023/03/14 05:39:06;;;;;;;;;;;29.60;57.90;;;;;;1808999;79;20218;-71
2023/03/14 05:41:36;;;;;;;;;;;29.60;57.80;;;;;;1804441;79;20273;-71
2023/03/14 05:44:06;;;;;;;;;;;29.60;57.70;;;;;;1807013;77;20264;-73
2023/03/14 05:46:36;;;;;;;;;;;29.60;58.40;;;;;;1808830;77;20303;-73
2023/03/14 05:49:06;;;;;;;;;;;29.60;57.00;;;;;;1805886;79;20234;-73
2023/03/14 05:51:36;;;;;;;;;;;29.60;57.00;;;;;;1813425;79;20280;-72
2023/03/14 05:54:07;;;;;;;;;;;29.70;56.50;;;;;;1804599;79;20360;-71
2023/03/14 05:56:37;;;;;;;;;;;29.60;58.00;;;;;;1810342;78;20298;-70
2023/03/14 05:59:08;;;;;;;;;;;29.60;57.10;;;;;;1804711;79;20226;-72
2023/03/14 06:01:38;;;;;;;;;;;29.70;57.00;;;;;;1809598;79;20174;-72
2023/03/14 06:04:08;;;;;;;;;;;29.70;57.10;;;;;;1804402;79;20178;-71
2023/03/14 06:06:38;;;;;;;;;;;29.70;56.70;;;;;;1816079;77;20214;-72
2023/03/14 06:09:08;;;;;;;;;;;29.70;58.40;;;;;;1810305;79;20192;-71
2023/03/14 06:11:38;;;;;;;;;;;29.70;58.10;;;;;;1793907;79;20258;-71
2023/03/14 06:14:08;;;;;;;;;;;29.80;57.40;;;;;;1803161;78;20306;-70
2023/03/14 06:16:38;;;;;;;;;;;29.90;57.20;;;;;;1802444;78;20222;-72
2023/03/14 06:19:08;;;;;;;;;;;29.90;58.20;;;;;;1799635;79;20231;-71
2023/03/14 06:21:37;;;;;;;;;;;30.00;56.50;;;;;;1722703;82;20219;-72
2023/03/14 06:24:07;;;;;;;;;;;30.00;57.50;;;;;;1784543;79;20279;-72
2023/03/14 06:26:37;;;;;;;;;;;30.10;56.00;;;;;;1725994;81;20184;-72
2023/03/14 06:29:07;;;;;;;;;;;30.10;56.10;;;;;;1764405;81;20277;-72
2023/03/14 06:31:37;;;;;;;;;;;30.20;55.50;;;;;;1723661;83;20188;-71
2023/03/14 06:34:07;;;;;;;;;;;30.20;55.50;;;;;;1768502;81;20510;-73
2023/03/14 06:36:37;;;;;;;;;;;30.30;55.30;;;;;;1770342;80;20237;-72
2023/03/14 06:39:07;;;;;;;;;;;30.30;57.20;;;;;;1728684;82;20268;-73
2023/03/14 06:41:37;;;;;;;;;;;30.40;60.60;;;;;;1768949;81;20184;-72
2023/03/14 06:44:07;;;;;;;;;;;30.30;59.00;;;;;;1754045;81;20302;-72
2023/03/14 06:46:37;;;;;;;;;;;30.20;56.20;;;;;;1732620;81;20248;-73
2023/03/14 06:49:07;;;;;;;;;;;30.20;54.90;;;;;;1735597;81;20217;-72
2023/03/14 06:51:37;;;;;;;;;;;30.20;55.60;;;;;;1772735;81;20246;-81
2023/03/14 06:54:07;;;;;;;;;;;30.20;55.60;;;;;;1728277;81;20271;-81
2023/03/14 06:56:36;;;;;;;;;;;30.20;56.70;;;;;;1768988;81;20203;-85
2023/03/14 06:59:07;;;;;;;;;;;30.30;55.70;;;;;;1760423;81;20236;-81
2023/03/14 07:01:37;;;;;;;;;;;30.30;55.80;;;;;;1764138;81;20234;-79
2023/03/14 07:04:07;;;;;;;;;;;30.30;55.90;;;;;;1767026;81;20171;-80
2023/03/14 07:06:39;;;;;;;;;;;30.20;57.30;;;;;;1768638;81;20186;-81
2023/03/14 07:09:09;;;;;;;;;;;30.20;59.90;;;;;;1770141;81;20175;-75
2023/03/14 07:11:38;;;;;;;;;;;30.20;62.10;;;;;;1754259;80;20336;-75
2023/03/14 07:14:08;;;;;;;;;;;30.10;63.70;;;;;;1754600;81;20194;-74
2023/03/14 07:16:39;;;;;;;;;;;30.10;61.40;;;;;;1751507;80;20317;-77
2023/03/14 07:19:11;;;;;;;;;;;30.00;58.20;;;;;;1755914;81;20143;-77
2023/03/14 07:21:40;;;;;;;;;;;30.00;56.40;;;;;;1769824;81;20206;-76
2023/03/14 07:24:10;;;;;;;;;;;30.00;56.40;;;;;;1734773;82;20518;-76
2023/03/14 07:26:40;;;;;;;;;;;30.00;56.90;;;;;;1745420;82;20229;-77
2023/03/14 07:29:10;;;;;;;;;;;30.00;57.20;;;;;;1744702;82;20495;-76
2023/03/14 07:31:40;;;;;;;;;;;30.00;55.60;;;;;;1745703;82;20271;-75
2023/03/14 07:34:10;;;;;;;;;;;30.00;56.40;;;;;;1743546;81;20239;-75
2023/03/14 07:36:40;;;;;;;;;;;30.10;58.00;;;;;;1745679;82;20218;-76
2023/03/14 07:39:10;;;;;;;;;;;30.10;57.80;;;;;;1745440;82;20175;-77
2023/03/14 07:41:40;;;;;;;;;;;30.10;55.60;;;;;;1744654;82;20304;-77
2023/03/14 07:44:10;;;;;;;;;;;30.10;57.00;;;;;;1740848;81;20831;-76
2023/03/14 07:46:40;;;;;;;;;;;30.10;57.00;;;;;;1744467;82;20322;-76
2023/03/14 07:49:10;;;;;;;;;;;30.00;55.90;;;;;;1733812;82;20615;-77
2023/03/14 07:51:40;;;;;;;;;;;30.00;55.40;;;;;;1745378;82;20203;-75
2023/03/14 07:54:10;;;;;;;;;;;30.00;55.70;;;;;;1746905;81;20255;-76
2023/03/14 07:56:39;;;;;;;;;;;30.10;55.70;;;;;;1750876;81;20242;-76
2023/03/14 07:59:10;;;;;;;;;;;30.10;55.90;;;;;;1741481;81;20493;-76
2023/03/14 08:01:40;;;;;;;;;;;30.10;56.10;;;;;;1745845;81;20257;-76
2023/03/14 08:04:10;;;;;;;;;;;30.10;55.20;;;;;;1744709;81;20207;-75
2023/03/14 08:06:40;;;;;;;;;;;30.00;54.90;;;;;;1744849;82;20232;-76
2023/03/14 08:09:10;;;;;;;;;;;30.00;55.40;;;;;;1736841;82;20218;-76
2023/03/14 08:14:30;;;;;;;;;;;30.00;55.20;;;;;;1793039;79;20576;-77
2023/03/14 08:17:00;;;;;;;;;;;30.00;55.00;;;;;;1808512;78;20285;-77
2023/03/14 08:19:30;;;;;;;;;;;30.10;56.30;;;;;;1805749;77;20173;-76
2023/03/14 08:22:00;;;;;;;;;;;30.00;55.50;;;;;;1819641;77;20166;-76
2023/03/14 08:24:30;;;;;;;;;;;30.10;55.20;;;;;;1860957;76;20181;-76
2023/03/14 08:27:00;;;;;;;;;;;30.10;56.00;;;;;;1862687;75;20183;-77
2023/03/14 08:29:29;;;;;;;;;;;30.10;54.50;;;;;;1864210;76;20208;-76
2023/03/14 08:31:59;;;;;;;;;;;30.10;54.70;;;;;;1868219;76;20204;-76
2023/03/14 08:34:29;;;;;;;;;;;30.10;54.70;;;;;;1864091;76;20235;-76
2023/03/14 08:36:59;;;;;;;;;;;30.10;54.80;;;;;;1861929;76;20194;-76
2023/03/14 08:39:30;;;;;;;;;;;30.10;54.30;;;;;;1857597;76;20676;-75
2023/03/14 08:42:00;;;;;;;;;;;30.10;54.10;;;;;;1859301;76;20196;-77
2023/03/14 08:44:30;;;;;;;;;;;30.10;53.90;;;;;;1866235;76;20200;-81
2023/03/14 08:47:01;;;;;;;;;;;30.10;53.70;;;;;;1852710;75;20333;-81
2023/03/14 08:49:32;;;;;;;;;;;30.00;53.40;;;;;;1856920;76;20206;-83
2023/03/14 08:52:04;;;;;;;;;;;30.10;53.70;;;;;;1801777;78;20205;-81
2023/03/14 08:54:34;;;;;;;;;;;30.00;53.70;;;;;;1820413;78;20462;-81
2023/03/14 08:57:04;;;;;;;;;;;30.10;54.00;;;;;;1822259;77;20482;-79
2023/03/14 08:59:34;;;;;;;;;;;30.10;54.30;;;;;;1819411;78;20210;-78
2023/03/14 09:02:07;;;;;;;;;;;30.10;54.40;;;;;;1818502;78;20608;-79
2023/03/14 09:04:38;;;;;;;;;;;30.10;54.30;;;;;;1856674;76;20590;-79
2023/03/14 09:07:08;;;;;;;;;;;30.10;54.40;;;;;;1860441;76;20254;-79
2023/03/14 09:09:37;;;;;;;;;;;30.10;54.40;;;;;;1857725;76;20834;-79
2023/03/14 09:12:09;;;;;;;;;;;30.10;54.30;;;;;;1857776;76;20240;-80
2023/03/14 09:14:39;;;;;;;;;;;30.10;54.20;;;;;;1852136;76;20165;-80
2023/03/14 09:17:09;;;;;;;;;;;30.10;54.30;;;;;;1815178;78;20187;-79
2023/03/14 09:19:39;;;;;;;;;;;30.00;54.50;;;;;;1810059;78;20218;-79
2023/03/14 09:22:09;;;;;;;;;;;30.00;55.50;;;;;;1783314;80;20189;-78
2023/03/14 09:24:40;;;;;;;;;;;30.00;54.70;;;;;;1771937;79;20249;-79
2023/03/14 09:27:10;;;;;;;;;;;30.00;55.50;;;;;;1770442;81;20235;-78
2023/03/14 09:29:40;;;;;;;;;;;30.00;54.40;;;;;;1793699;79;20248;-78
2023/03/14 09:32:10;;;;;;;;;;;30.00;54.50;;;;;;1786159;79;20188;-78
2023/03/14 09:34:40;;;;;;;;;;;29.90;54.70;;;;;;1793311;79;20335;-78
2023/03/14 09:37:10;;;;;;;;;;;29.90;55.90;;;;;;1787122;78;20169;-77
2023/03/14 09:39:40;;;;;;;;;;;29.90;55.80;;;;;;1783917;80;20205;-78
2023/03/14 09:42:11;;;;;;;;;;;29.90;55.70;;;;;;1798928;79;20194;-79
2023/03/14 09:44:42;;;;;;;;;;;29.90;55.10;;;;;;1819353;77;20335;-78
2023/03/14 09:47:14;;;;;;;;;;;29.80;54.90;;;;;;1794874;79;20127;-79
2023/03/14 09:49:43;;;;;;;;;;;29.80;55.40;;;;;;1830532;77;20178;-79
2023/03/14 09:52:18;;;;;;;;;;;29.80;55.50;;;;;;1807320;78;20241;-79
2023/03/14 09:54:52;;;;;;;;;;;29.70;55.10;;;;;;1814610;77;20242;-80
2023/03/14 09:57:23;;;;;;;;;;;29.80;55.50;;;;;;1791363;80;20217;-80
2023/03/14 09:59:54;;;;;;;;;;;29.70;55.50;;;;;;1796219;78;20185;-79
2023/03/14 10:02:26;;;;;;;;;;;29.80;56.10;;;;;;1810376;78;20208;-79
2023/03/14 10:04:55;;;;;;;;;;;29.70;55.90;;;;;;1787828;79;20227;-79
2023/03/14 10:10:17;;;;;;;;;;;29.70;56.00;;;;;;1798726;79;20219;-80
2023/03/14 10:12:50;;;;;;;;;;;29.70;55.60;;;;;;1810357;78;20598;-79
2023/03/14 10:15:26;;;;;;;;;;;29.70;55.70;;;;;;1801445;78;20249;-79
2023/03/14 10:17:56;;;;;;;;;;;29.60;55.60;;;;;;1767911;79;20381;-80
2023/03/14 10:20:43;;;;;;;;;;;29.60;55.80;;;;;;1739573;82;20182;-80
2023/03/14 10:23:16;;;;;;;;;;;29.60;56.00;;;;;;1825520;78;20196;-80
2023/03/14 10:26:05;;;;;;;;;;;29.50;56.40;;;;;;1814954;78;20199;-80
2023/03/14 10:28:42;;;;;;;;;;;29.50;56.60;;;;;;1775603;80;20239;-79
2023/03/14 10:31:12;;;;;;;;;;;29.50;56.40;;;;;;1772170;80;20211;-79
2023/03/14 10:33:46;;;;;;;;;;;29.50;56.30;;;;;;1779059;80;20239;-79
2023/03/14 10:36:32;;;;;;;;;;;29.40;56.40;;;;;;1773720;80;20311;-79
2023/03/14 10:39:20;;;;;;;;;;;29.40;56.40;;;;;;1779948;80;20582;-79
2023/03/14 10:41:58;;;;;;;;;;;29.40;56.70;;;;;;1776399;80;20463;-79
2023/03/14 10:44:29;;;;;;;;;;;29.40;56.80;;;;;;1785828;80;20220;-78
2023/03/14 10:47:02;;;;;;;;;;;29.30;57.00;;;;;;1773303;78;20190;-80
2023/03/14 10:49:34;;;;;;;;;;;29.30;57.30;;;;;;1776492;80;20344;-80
2023/03/14 10:52:17;;;;;;;;;;;29.30;57.40;;;;;;1782446;80;20227;-79
2023/03/14 10:54:50;;;;;;;;;;;29.20;57.40;;;;;;1772914;80;20165;-80
2023/03/14 10:57:21;;;;;;;;;;;29.20;57.60;;;;;;1784681;80;20226;-80
2023/03/14 10:59:51;;;;;;;;;;;29.20;57.70;;;;;;1783880;80;20339;-79
2023/03/14 11:02:26;;;;;;;;;;;29.10;58.00;;;;;;1787099;80;20696;-80
2023/03/14 11:05:04;;;;;;;;;;;29.10;58.10;;;;;;1711861;82;20237;-80
2023/03/14 11:07:36;;;;;;;;;;;29.10;58.10;;;;;;1710942;83;20241;-80
2023/03/14 11:10:21;;;;;;;;;;;29.10;58.10;;;;;;1702974;83;20239;-79
2023/03/14 11:12:55;;;;;;;;;;;29.10;58.30;;;;;;1703714;83;20224;-79
2023/03/14 11:15:30;;;;;;;;;;;29.10;58.30;;;;;;1710979;83;20241;-81
2023/03/14 11:18:17;;;;;;;;;;;29.00;58.30;;;;;;1714493;83;20316;-79
2023/03/14 11:21:05;;;;;;;;;;;29.10;58.40;;;;;;1714997;82;20195;-80
2023/03/14 11:23:48;;;;;;;;;;;29.00;58.50;;;;;;1678462;86;20154;-79
2023/03/14 11:26:19;;;;;;;;;;;29.10;58.70;;;;;;1716268;82;20590;-76
2023/03/14 11:28:51;;;;;;;;;;;29.00;58.60;;;;;;1712229;82;20230;-77
2023/03/14 11:31:22;;;;;;;;;;;28.90;58.70;;;;;;1715513;82;20222;-77
2023/03/14 11:34:08;;;;;;;;;;;28.90;58.80;;;;;;1710644;82;20689;-79
2023/03/14 11:36:39;;;;;;;;;;;28.90;58.90;;;;;;1711369;82;20399;-78
2023/03/14 11:39:16;;;;;;;;;;;28.90;59.00;;;;;;1737012;81;20185;-77
2023/03/14 11:41:53;;;;;;;;;;;28.90;59.00;;;;;;1728230;82;20200;-78
2023/03/14 11:44:25;;;;;;;;;;;28.90;59.20;;;;;;1717388;83;20765;-79
2023/03/14 11:47:00;;;;;;;;;;;28.90;59.00;;;;;;1714074;83;20521;-78
2023/03/14 11:49:40;;;;;;;;;;;28.90;59.00;;;;;;1729369;80;20235;-78
2023/03/14 11:52:15;;;;;;;;;;;28.80;59.10;;;;;;1712906;82;20234;-78
2023/03/14 11:54:52;;;;;;;;;;;28.80;59.00;;;;;;1742017;81;21235;-78
2023/03/14 11:57:22;;;;;;;;;;;28.80;59.10;;;;;;1729845;82;20439;-81
2023/03/14 11:59:59;;;;;;;;;;;28.80;59.10;;;;;;1730818;81;20196;-78
2023/03/14 12:02:30;;;;;;;;;;;28.80;59.00;;;;;;1715370;83;20277;-78
2023/03/14 12:05:18;;;;;;;;;;;28.80;59.10;;;;;;1734912;81;20207;-79
2023/03/14 12:08:05;;;;;;;;;;;28.80;59.20;;;;;;1733189;82;20239;-79
2023/03/14 12:10:39;;;;;;;;;;;28.70;59.30;;;;;;1735008;82;20258;-82
2023/03/14 12:13:10;;;;;;;;;;;28.70;59.40;;;;;;1732653;81;20593;-81
2023/03/14 12:15:43;;;;;;;;;;;28.70;59.50;;;;;;1733867;81;20169;-81
2023/03/14 12:18:17;;;;;;;;;;;28.70;59.80;;;;;;1737726;82;20304;-81
2023/03/14 12:20:48;;;;;;;;;;;28.70;59.80;;;;;;1729923;81;20120;-81
2023/03/14 12:23:18;;;;;;;;;;;28.60;60.00;;;;;;1727050;81;20219;-81
2023/03/14 12:25:49;;;;;;;;;;;28.60;60.10;;;;;;1728136;81;20304;-82
2023/03/14 12:28:23;;;;;;;;;;;28.60;60.60;;;;;;1724848;81;20545;-82
2023/03/14 12:30:52;;;;;;;;;;;28.50;60.60;;;;;;1736898;81;20260;-80
2023/03/14 12:33:24;;;;;;;;;;;28.50;60.40;;;;;;1732556;82;20244;-81
2023/03/14 12:36:00;;;;;;;;;;;28.50;60.80;;;;;;1731548;82;20326;-81
2023/03/14 12:38:38;;;;;;;;;;;28.50;60.80;;;;;;1738740;82;20482;-82
2023/03/14 12:41:09;;;;;;;;;;;28.50;60.90;;;;;;1740437;82;20324;-80
2023/03/14 12:43:39;;;;;;;;;;;28.40;60.90;;;;;;1743357;82;20197;-81
2023/03/14 12:46:22;;;;;;;;;;;28.40;60.90;;;;;;1737719;82;20256;-81
2023/03/14 12:48:53;;;;;;;;;;;28.40;61.00;;;;;;1741676;82;20165;-80
2023/03/14 12:51:39;;;;;;;;;;;28.40;61.40;;;;;;1712919;83;20428;-81
2023/03/14 12:54:27;;;;;;;;;;;28.40;61.30;;;;;;1706100;83;20561;-81
2023/03/14 12:57:03;;;;;;;;;;;28.40;61.30;;;;;;1681363;84;20331;-81
2023/03/14 12:59:34;;;;;;;;;;;28.30;61.40;;;;;;1681063;84;20292;-80
2023/03/14 13:02:05;;;;;;;;;;;28.40;61.50;;;;;;1719711;82;20200;-81
2023/03/14 13:04:37;;;;;;;;;;;28.30;61.50;;;;;;1748611;81;20185;-81
2023/03/14 13:07:15;;;;;;;;;;;28.30;61.90;;;;;;1739173;82;20268;-80
2023/03/14 13:09:52;;;;;;;;;;;28.30;61.80;;;;;;1739401;82;20230;-82
2023/03/14 13:12:23;;;;;;;;;;;28.30;61.70;;;;;;1738585;82;20197;-81
2023/03/14 13:20:51;;;;;;;;;;;28.20;62.50;;;;;;1684890;84;20254;-82
2023/03/14 13:23:25;;;;;;;;;;;28.10;62.50;;;;;;1697377;83;20245;-80
2023/03/14 13:25:55;;;;;;;;;;;28.10;62.70;;;;;;1671277;84;20347;-80
2023/03/14 13:28:25;;;;;;;;;;;28.10;62.30;;;;;;1694048;81;20744;-81
2023/03/14 13:30:56;;;;;;;;;;;28.10;62.60;;;;;;1707444;83;20144;-81
2023/03/14 13:33:47;;;;;;;;;;;28.10;62.80;;;;;;1710874;83;20339;-81
2023/03/14 13:36:18;;;;;;;;;;;28.10;62.90;;;;;;1707690;83;20250;-81
2023/03/14 13:38:58;;;;;;;;;;;28.10;63.20;;;;;;1736554;82;20145;-80
2023/03/14 13:41:32;;;;;;;;;;;28.00;63.20;;;;;;1736375;79;20164;-82
2023/03/14 13:44:03;;;;;;;;;;;28.00;63.10;;;;;;1723831;83;20130;-81
2023/03/14 13:46:34;;;;;;;;;;;28.00;63.00;;;;;;1718674;83;20186;-82
2023/03/14 13:49:06;;;;;;;;;;;28.00;63.40;;;;;;1689562;83;20211;-81
2023/03/14 13:51:37;;;;;;;;;;;28.00;63.30;;;;;;1715722;82;20358;-81
2023/03/14 13:54:14;;;;;;;;;;;28.00;63.30;;;;;;1709040;82;20239;-80
2023/03/14 13:56:46;;;;;;;;;;;28.00;63.30;;;;;;1697927;83;20235;-80
2023/03/14 13:59:25;;;;;;;;;;;28.00;63.30;;;;;;1722354;81;20173;-80
2023/03/14 14:01:56;;;;;;;;;;;28.00;63.20;;;;;;1721006;81;20708;-81
2023/03/14 14:04:27;;;;;;;;;;;28.00;63.20;;;;;;1721999;82;20236;-80
2023/03/14 14:07:01;;;;;;;;;;;28.00;62.90;;;;;;1725745;81;20291;-81
2023/03/14 14:13:00;;;;;;;;;;;28.00;63.10;;;;;;1723556;82;20575;-81
2023/03/14 14:15:31;;;;;;;;;;;28.00;63.30;;;;;;1700020;83;20223;-80
2023/03/14 14:18:03;;;;;;;;;;;28.00;63.30;;;;;;1720629;82;20284;-81
2023/03/14 14:20:34;;;;;;;;;;;28.00;63.30;;;;;;1726933;83;20231;-80
2023/03/14 14:23:05;;;;;;;;;;;28.00;64.10;;;;;;1726359;83;20530;-80
2023/03/14 14:25:35;;;;;;;;;;;28.00;63.60;;;;;;1726553;83;20179;-79
2023/03/14 14:28:22;;;;;;;;;;;27.90;63.70;;;;;;1752473;82;20204;-81
2023/03/14 14:31:05;;;;;;;;;;;27.90;63.40;;;;;;1734927;82;20191;-80
2023/03/14 14:33:43;;;;;;;;;;;27.90;63.80;;;;;;1725298;81;20238;-81
2023/03/14 14:36:32;;;;;;;;;;;27.80;63.90;;;;;;1701345;83;20206;-81
2023/03/14 14:39:18;;;;;;;;;;;27.80;64.10;;;;;;1701510;83;20221;-81
2023/03/14 14:41:51;;;;;;;;;;;27.80;64.40;;;;;;1701383;83;20256;-80
2023/03/14 14:44:23;;;;;;;;;;;27.80;63.70;;;;;;1700686;84;20213;-81
2023/03/14 14:46:52;;;;;;;;;;;27.80;64.90;;;;;;1722774;83;20305;-82
2023/03/14 14:49:24;;;;;;;;;;;27.70;64.60;;;;;;1731763;81;20190;-81
2023/03/14 14:51:54;;;;;;;;;;;27.70;64.40;;;;;;1728664;82;20246;-81
2023/03/14 14:54:25;;;;;;;;;;;27.70;65.30;;;;;;1725874;83;20637;-81
2023/03/14 14:56:56;;;;;;;;;;;27.60;65.60;;;;;;1739757;82;20548;-80
2023/03/14 14:59:29;;;;;;;;;;;27.60;65.50;;;;;;1740590;82;20550;-81
2023/03/14 15:02:00;;;;;;;;;;;27.60;66.20;;;;;;1729919;82;20237;-80
2023/03/14 15:04:48;;;;;;;;;;;27.60;65.60;;;;;;1737668;81;20220;-80
2023/03/14 15:07:18;;;;;;;;;;;27.50;66.10;;;;;;1736539;82;20207;-80
2023/03/14 15:09:48;;;;;;;;;;;27.50;66.40;;;;;;1724239;83;20577;-81
2023/03/14 15:12:18;;;;;;;;;;;27.50;66.80;;;;;;1723978;83;20362;-81
2023/03/14 15:14:48;;;;;;;;;;;27.50;66.90;;;;;;1733141;81;20200;-80